createdAt,value
2023-02-25T00:01:39.294Z,101635.75
2023-02-25T00:04:06.618Z,101636.94
2023-02-25T00:06:33.560Z,101639.66
2023-02-25T00:09:01.307Z,101636.22
2023-02-25T00:11:28.824Z,101644.22
2023-02-25T00:13:55.695Z,101641.75
2023-02-25T00:16:24.252Z,101648.88
2023-02-25T00:18:58.339Z,101648.06
2023-02-25T00:21:26.124Z,101655.22
2023-02-25T00:24:00.075Z,101651.78
2023-02-25T00:26:31.873Z,101652.72
2023-02-25T00:28:58.828Z,101655.47
2023-02-25T00:31:26.305Z,101651.97
2023-02-25T00:33:53.766Z,101659.13
2023-02-25T00:36:24.327Z,101665.41
2023-02-25T00:38:54.546Z,101677.72
2023-02-25T00:41:24.710Z,101675.19
2023-02-25T00:43:56.644Z,101672.59
2023-02-25T00:46:24.313Z,101674.47
2023-02-25T00:48:52.047Z,101680.63
2023-02-25T00:51:23.177Z,101680.66
2023-02-25T00:53:50.226Z,101669.09
2023-02-25T00:56:17.845Z,101675.38
2023-02-25T00:58:46.244Z,101676.44
2023-02-25T01:01:33.763Z,101680.88
2023-02-25T01:04:01.055Z,101675.69
2023-02-25T01:06:29.367Z,101678.34
2023-02-25T01:08:57.992Z,101671.38
2023-02-25T01:11:29.708Z,101671.47
2023-02-25T01:13:58.778Z,101670.78
2023-02-25T01:16:27.548Z,101669.84
2023-02-25T01:18:56.658Z,101675.22
2023-02-25T01:21:28.375Z,101674.34
2023-02-25T01:24:01.306Z,101677.13
2023-02-25T01:26:31.260Z,101678.91
2023-02-25T01:28:58.169Z,101671.22
2023-02-25T01:31:29.770Z,101690.47
2023-02-25T01:34:01.203Z,101686.13
2023-02-25T01:36:29.497Z,101699.38
2023-02-25T01:38:56.665Z,101697.72
2023-02-25T01:41:25.317Z,101705.66
2023-02-25T01:44:12.430Z,101704.78
2023-02-25T01:46:41.864Z,101704.88
2023-02-25T01:49:41.232Z,101713.69
2023-02-25T01:52:20.784Z,101709.38
2023-02-25T01:54:52.367Z,101719.00
2023-02-25T01:57:19.704Z,101717.31
2023-02-25T01:59:48.160Z,101716.47
2023-02-25T02:02:19.369Z,101724.56
2023-02-25T02:04:50.331Z,101727.94
2023-02-25T02:07:18.184Z,101734.09
2023-02-25T02:09:57.378Z,101722.72
2023-02-25T02:12:37.612Z,101729.72
2023-02-25T02:15:08.483Z,101729.84
2023-02-25T02:18:03.541Z,101738.50
2023-02-25T02:20:39.168Z,101731.53
2023-02-25T02:23:57.935Z,101727.22
2023-02-25T02:26:52.442Z,101721.91
2023-02-25T02:29:31.085Z,101727.22
2023-02-25T02:32:16.163Z,101737.78
2023-02-25T02:35:02.339Z,101736.84
2023-02-25T02:37:32.102Z,101725.34
2023-02-25T02:40:12.096Z,101734.09
2023-02-25T02:43:18.940Z,101733.34
2023-02-25T02:46:15.157Z,101740.28
2023-02-25T02:49:12.322Z,101731.53
2023-02-25T02:51:46.926Z,101736.84
2023-02-25T02:54:16.410Z,101741.22
2023-02-25T02:56:46.667Z,101752.72
2023-02-25T02:59:28.438Z,101759.66
2023-02-25T03:02:06.796Z,101753.50
2023-02-25T03:04:37.698Z,101761.44
2023-02-25T03:07:10.850Z,101753.50
2023-02-25T03:09:46.048Z,101762.31
2023-02-25T03:12:13.029Z,101758.75
2023-02-25T03:14:40.126Z,101749.97
2023-02-25T03:17:11.637Z,101753.47
2023-02-25T03:20:01.584Z,101751.69
2023-02-25T03:22:34.207Z,101751.69
2023-02-25T03:25:19.839Z,101757.78
2023-02-25T03:27:49.800Z,101760.44
2023-02-25T03:30:28.686Z,101746.41
2023-02-25T03:33:17.571Z,101753.41
2023-02-25T03:35:47.660Z,101756.88
2023-02-25T03:38:20.061Z,101749.84
2023-02-25T03:40:49.698Z,101754.94
2023-02-25T03:43:21.635Z,101761.09
2023-02-25T03:45:49.032Z,101758.47
2023-02-25T03:48:19.395Z,101760.19
2023-02-25T03:50:54.702Z,101761.97
2023-02-25T03:53:21.975Z,101752.31
2023-02-25T03:55:49.193Z,101756.72
2023-02-25T03:58:16.103Z,101760.25
2023-02-25T04:00:46.438Z,101760.31
2023-02-25T04:03:13.271Z,101761.09
2023-02-25T04:05:40.177Z,101748.88
2023-02-25T04:08:15.503Z,101753.97
2023-02-25T04:10:45.970Z,101747.88
2023-02-25T04:13:14.905Z,101748.75
2023-02-25T04:15:41.947Z,101751.31
2023-02-25T04:18:09.647Z,101756.59
2023-02-25T04:20:36.491Z,101761.06
2023-02-25T04:23:03.388Z,101761.06
2023-02-25T04:25:30.260Z,101764.53
2023-02-25T04:27:57.071Z,101767.19
2023-02-25T04:30:24.022Z,101760.31
2023-02-25T04:32:50.884Z,101765.50
2023-02-25T04:35:17.937Z,101761.06
2023-02-25T04:37:44.865Z,101765.50
2023-02-25T04:40:16.066Z,101765.50
2023-02-25T04:42:43.378Z,101757.47
2023-02-25T04:45:11.904Z,101774.22
2023-02-25T04:47:39.385Z,101768.94
2023-02-25T04:50:08.458Z,101770.66
2023-02-25T04:52:35.531Z,101778.53
2023-02-25T04:55:02.615Z,101775.09
2023-02-25T04:57:29.486Z,101784.69
2023-02-25T04:59:56.474Z,101790.84
2023-02-25T05:02:23.315Z,101792.56
2023-02-25T05:04:50.252Z,101789.00
2023-02-25T05:07:17.152Z,101804.88
2023-02-25T05:09:44.480Z,101803.88
2023-02-25T05:12:11.329Z,101806.53
2023-02-25T05:14:38.298Z,101809.06
2023-02-25T05:17:05.135Z,101801.25
2023-02-25T05:19:31.969Z,101807.28
2023-02-25T05:21:58.800Z,101803.78
2023-02-25T05:24:25.626Z,101804.69
2023-02-25T05:26:52.563Z,101809.84
2023-02-25T05:29:19.558Z,101805.47
2023-02-25T05:31:46.964Z,101802.78
2023-02-25T05:34:14.064Z,101811.53
2023-02-25T05:36:41.237Z,101802.72
2023-02-25T05:39:08.166Z,101813.25
2023-02-25T05:41:35.008Z,101818.47
2023-02-25T05:44:01.853Z,101809.63
2023-02-25T05:46:28.798Z,101812.31
2023-02-25T05:48:55.672Z,101811.28
2023-02-25T05:51:23.853Z,101821.88
2023-02-25T05:53:53.705Z,101819.16
2023-02-25T05:56:25.651Z,101823.59
2023-02-25T05:58:52.830Z,101816.50
2023-02-25T06:01:24.759Z,101819.16
2023-02-25T06:03:58.814Z,101822.59
2023-02-25T06:06:28.685Z,101825.31
2023-02-25T06:08:56.155Z,101825.41
2023-02-25T06:11:26.421Z,101827.09
2023-02-25T06:13:55.081Z,101829.63
2023-02-25T06:16:23.420Z,101834.91
2023-02-25T06:18:51.705Z,101812.97
2023-02-25T06:21:19.093Z,101810.31
2023-02-25T06:23:46.423Z,101820.78
2023-02-25T06:26:14.687Z,101819.84
2023-02-25T06:28:41.660Z,101819.84
2023-02-25T06:31:17.154Z,101823.31
2023-02-25T06:33:45.863Z,101818.84
2023-02-25T06:36:13.888Z,101818.06
2023-02-25T06:38:40.744Z,101823.31
2023-02-25T06:41:09.903Z,101818.06
2023-02-25T06:43:38.424Z,101827.66
2023-02-25T06:46:10.266Z,101826.78
2023-02-25T06:48:37.272Z,101831.19
2023-02-25T06:51:09.434Z,101829.41
2023-02-25T06:53:37.598Z,101825.00
2023-02-25T06:56:04.816Z,101837.25
2023-02-25T06:58:31.823Z,101827.63
2023-02-25T07:00:59.988Z,101842.56
2023-02-25T07:03:27.403Z,101844.28
2023-02-25T07:05:54.480Z,101849.09
2023-02-25T07:08:21.336Z,101852.16
2023-02-25T07:10:48.234Z,101859.53
2023-02-25T07:13:15.273Z,101851.25
2023-02-25T07:15:42.181Z,101859.53
2023-02-25T07:18:09.346Z,101860.00
2023-02-25T07:20:36.333Z,101865.09
2023-02-25T07:23:04.587Z,101863.22
2023-02-25T07:25:31.638Z,101863.13
2023-02-25T07:27:58.582Z,101868.59
2023-02-25T07:30:25.610Z,101864.13
2023-02-25T07:32:52.583Z,101872.13
2023-02-25T07:35:19.474Z,101867.59
2023-02-25T07:37:46.388Z,101872.13
2023-02-25T07:40:13.232Z,101872.03
2023-02-25T07:42:41.798Z,101870.47
2023-02-25T07:45:10.371Z,101875.97
2023-02-25T07:47:38.002Z,101884.72
2023-02-25T07:50:11.572Z,101888.16
2023-02-25T07:52:39.597Z,101885.38
2023-02-25T07:55:07.320Z,101890.81
2023-02-25T07:57:34.195Z,101890.81
2023-02-25T08:00:01.429Z,101898.81
2023-02-25T08:02:28.357Z,101897.75
2023-02-25T08:04:55.437Z,101906.50
2023-02-25T08:07:22.275Z,101908.13
2023-02-25T08:09:49.504Z,101916.06
2023-02-25T08:12:16.449Z,101916.94
2023-02-25T08:14:43.342Z,101912.44
2023-02-25T08:17:10.174Z,101916.75
2023-02-25T08:19:37.036Z,101937.06
2023-02-25T08:22:05.019Z,101934.41
2023-02-25T08:24:32.672Z,101929.91
2023-02-25T08:26:59.713Z,101928.97
2023-02-25T08:29:26.940Z,101919.22
2023-02-25T08:31:54.056Z,101930.56
2023-02-25T08:34:21.325Z,101927.84
2023-02-25T08:36:49.042Z,101920.72
2023-02-25T08:39:15.871Z,101920.28
2023-02-25T08:41:44.555Z,101923.50
2023-02-25T08:44:11.533Z,101928.53
2023-02-25T08:46:38.760Z,101936.28
2023-02-25T08:49:07.329Z,101930.06
2023-02-25T08:51:34.701Z,101936.94
2023-02-25T08:54:04.297Z,101936.94
2023-02-25T08:56:31.971Z,101945.59
2023-02-25T08:58:59.626Z,101941.97
2023-02-25T09:01:26.981Z,101939.94
2023-02-25T09:03:54.329Z,101938.97
2023-02-25T09:06:23.583Z,101925.75
2023-02-25T09:08:52.324Z,101935.31
2023-02-25T09:11:19.957Z,101933.38
2023-02-25T09:13:46.989Z,101935.13
2023-02-25T09:16:17.843Z,101933.16
2023-02-25T09:18:50.563Z,101937.47
2023-02-25T09:21:19.077Z,101937.47
2023-02-25T09:23:47.146Z,101952.25
2023-02-25T09:26:14.777Z,101949.56
2023-02-25T09:28:41.969Z,101952.06
2023-02-25T09:31:09.070Z,101953.59
2023-02-25T09:33:37.527Z,101949.16
2023-02-25T09:36:18.221Z,101949.13
2023-02-25T09:38:47.274Z,101951.78
2023-02-25T09:41:23.622Z,101960.50
2023-02-25T09:44:01.285Z,101956.88
2023-02-25T09:46:30.981Z,101964.75
2023-02-25T09:49:07.497Z,101968.22
2023-02-25T09:51:38.548Z,101966.41
2023-02-25T09:54:22.849Z,101976.88
2023-02-25T09:56:50.702Z,101965.41
2023-02-25T09:59:21.809Z,101970.53
2023-02-25T10:02:00.699Z,101966.91
2023-02-25T10:04:38.474Z,101969.06
2023-02-25T10:07:19.373Z,101976.19
2023-02-25T10:10:02.761Z,101978.75
2023-02-25T10:12:39.401Z,101980.59
2023-02-25T10:15:37.113Z,101978.28
2023-02-25T10:18:19.383Z,101988.59
2023-02-25T10:21:01.864Z,101986.69
2023-02-25T10:23:40.815Z,101990.03
2023-02-25T10:26:26.660Z,101987.13
2023-02-25T10:29:07.642Z,101990.44
2023-02-25T10:31:35.792Z,101992.09
2023-02-25T10:34:23.488Z,101997.28
2023-02-25T10:37:05.629Z,101996.41
2023-02-25T10:39:33.295Z,101999.84
2023-02-25T10:42:00.833Z,102002.38
2023-02-25T10:44:27.993Z,102007.69
2023-02-25T10:47:00.742Z,102014.13
2023-02-25T10:49:30.767Z,102014.13
2023-02-25T10:52:18.667Z,102023.03
2023-02-25T10:54:53.507Z,102026.59
2023-02-25T10:57:28.022Z,102024.72
2023-02-25T11:00:06.901Z,102023.81
2023-02-25T11:02:41.637Z,102034.47
2023-02-25T11:05:37.144Z,102032.88
2023-02-25T11:08:09.024Z,102042.50
2023-02-25T11:10:36.224Z,102045.47
2023-02-25T11:13:06.422Z,102045.47
2023-02-25T11:15:46.131Z,102044.00
2023-02-25T11:18:28.046Z,102048.25
2023-02-25T11:20:58.308Z,102034.31
2023-02-25T11:23:33.795Z,102036.72
2023-02-25T11:26:00.833Z,102039.38
2023-02-25T11:28:33.674Z,102046.38
2023-02-25T11:31:21.168Z,102040.06
2023-02-25T11:34:05.455Z,102042.81
2023-02-25T11:36:38.791Z,102044.72
2023-02-25T11:39:08.175Z,102050.91
2023-02-25T11:41:35.307Z,102038.72
2023-02-25T11:44:20.847Z,102035.50
2023-02-25T11:47:21.264Z,102046.09
2023-02-25T11:49:52.754Z,102047.03
2023-02-25T11:52:26.343Z,102053.25
2023-02-25T11:55:23.812Z,102063.13
2023-02-25T11:58:18.197Z,102057.69
2023-02-25T12:00:58.100Z,102063.72
2023-02-25T12:03:33.957Z,102070.75
2023-02-25T12:06:16.267Z,102066.34
2023-02-25T12:09:17.628Z,102068.16
2023-02-25T12:11:56.672Z,102063.34
2023-02-25T12:14:53.912Z,102067.53
2023-02-25T12:17:48.686Z,102065.63
2023-02-25T12:20:50.391Z,102066.06
2023-02-25T12:23:41.807Z,102059.53
2023-02-25T12:26:15.121Z,102059.50
2023-02-25T12:29:06.468Z,102073.56
2023-02-25T12:31:36.366Z,102059.88
2023-02-25T12:34:22.893Z,102066.19
2023-02-25T12:36:59.821Z,102060.91
2023-02-25T12:39:26.678Z,102070.47
2023-02-25T12:42:27.411Z,102074.00
2023-02-25T12:45:24.382Z,102074.41
2023-02-25T12:47:53.064Z,102071.72
2023-02-25T12:50:34.333Z,102064.53
2023-02-25T12:53:20.326Z,102074.00
2023-02-25T12:56:05.817Z,102071.19
2023-02-25T12:58:48.031Z,102075.44
2023-02-25T13:01:24.229Z,102072.47
2023-02-25T13:04:01.811Z,102076.50
2023-02-25T13:06:42.830Z,102071.88
2023-02-25T13:09:32.958Z,102076.00
2023-02-25T13:12:12.099Z,102084.63
2023-02-25T13:14:58.354Z,102089.69
2023-02-25T13:17:32.994Z,102093.81
2023-02-25T13:20:37.363Z,102091.69
2023-02-25T13:23:42.054Z,102086.09
2023-02-25T13:26:28.547Z,102082.31
2023-02-25T13:29:50.016Z,102094.31
2023-02-25T13:32:32.193Z,102092.16
2023-02-25T13:35:15.545Z,102094.63
2023-02-25T13:38:28.633Z,102098.94
2023-02-25T13:40:58.585Z,102104.00
2023-02-25T13:44:02.552Z,102093.94
2023-02-25T13:46:51.513Z,102100.94
2023-02-25T13:49:57.413Z,102105.09
2023-02-25T13:53:06.242Z,102099.44
2023-02-25T13:55:41.978Z,102084.97
2023-02-25T13:58:39.123Z,102090.44
2023-02-25T14:01:43.885Z,102081.31
2023-02-25T14:04:38.987Z,102087.84
2023-02-25T14:07:11.735Z,102094.25
2023-02-25T14:09:50.676Z,102099.34
2023-02-25T14:12:54.638Z,102094.19
2023-02-25T14:15:29.129Z,102100.50
2023-02-25T14:18:13.962Z,102109.25
2023-02-25T14:21:07.538Z,102108.41
2023-02-25T14:23:56.364Z,102105.81
2023-02-25T14:26:33.964Z,102098.06
2023-02-25T14:29:31.709Z,102102.50
2023-02-25T14:32:15.248Z,102108.81
2023-02-25T14:35:03.899Z,102111.69
2023-02-25T14:37:50.221Z,102111.22
2023-02-25T14:40:23.160Z,102112.75
2023-02-25T14:43:11.281Z,102108.63
2023-02-25T14:45:42.067Z,102104.59
2023-02-25T14:48:41.516Z,102104.75
2023-02-25T14:51:35.812Z,102113.00
2023-02-25T14:54:34.519Z,102112.94
2023-02-25T14:57:20.654Z,102117.25
2023-02-25T15:00:42.076Z,102121.44
2023-02-25T15:03:30.155Z,102120.31
2023-02-25T15:06:12.540Z,102122.06
2023-02-25T15:08:57.813Z,102116.66
2023-02-25T15:11:50.684Z,102112.22
2023-02-25T15:14:36.106Z,102119.31
2023-02-25T15:17:30.912Z,102122.09
2023-02-25T15:20:10.357Z,102124.88
2023-02-25T15:22:42.163Z,102128.41
2023-02-25T15:25:21.499Z,102131.16
2023-02-25T15:27:51.645Z,102130.31
2023-02-25T15:30:24.224Z,102133.91
2023-02-25T15:32:51.322Z,102144.66
2023-02-25T15:35:43.809Z,102131.19
2023-02-25T15:38:18.486Z,102135.59
2023-02-25T15:40:51.344Z,102136.13
2023-02-25T15:43:18.255Z,102146.88
2023-02-25T15:46:14.585Z,102141.56
2023-02-25T15:48:42.873Z,102139.03
2023-02-25T15:51:14.476Z,102140.09
2023-02-25T15:53:42.937Z,102145.41
2023-02-25T15:56:12.551Z,102146.16
2023-02-25T15:58:53.680Z,102160.13
2023-02-25T16:01:28.352Z,102159.97
2023-02-25T16:03:55.769Z,102157.31
2023-02-25T16:06:25.820Z,102162.59
2023-02-25T16:09:15.990Z,102162.25
2023-02-25T16:11:42.961Z,102167.31
2023-02-25T16:14:21.667Z,102162.69
2023-02-25T16:17:00.439Z,102173.06
2023-02-25T16:19:33.657Z,102175.38
2023-02-25T16:22:02.274Z,102175.91
2023-02-25T16:24:29.829Z,102187.88
2023-02-25T16:27:15.514Z,102185.66
2023-02-25T16:30:03.891Z,102191.31
2023-02-25T16:32:54.604Z,102198.13
2023-02-25T16:36:06.781Z,102200.56
2023-02-25T16:38:40.575Z,102194.84
2023-02-25T16:41:07.704Z,102199.03
2023-02-25T16:43:38.805Z,102199.75
2023-02-25T16:46:13.036Z,102197.47
2023-02-25T16:48:50.515Z,102206.22
2023-02-25T16:51:42.730Z,102198.06
2023-02-25T16:54:18.045Z,102196.81
2023-02-25T16:56:47.523Z,102203.66
2023-02-25T16:59:14.445Z,102195.69
2023-02-25T17:02:22.222Z,102201.50
2023-02-25T17:04:51.931Z,102211.06
2023-02-25T17:07:30.532Z,102209.22
2023-02-25T17:10:04.187Z,102215.47
2023-02-25T17:12:45.921Z,102212.81
2023-02-25T17:15:27.101Z,102208.25
2023-02-25T17:18:17.129Z,102212.28
2023-02-25T17:20:44.508Z,102222.81
2023-02-25T17:23:14.582Z,102224.81
2023-02-25T17:25:49.518Z,102222.38
2023-02-25T17:28:26.364Z,102229.50
2023-02-25T17:31:03.463Z,102233.94
2023-02-25T17:33:35.057Z,102237.47
2023-02-25T17:36:15.414Z,102229.13
2023-02-25T17:38:44.512Z,102234.03
2023-02-25T17:41:22.608Z,102244.66
2023-02-25T17:43:50.127Z,102242.69
2023-02-25T17:46:44.774Z,102248.09
2023-02-25T17:49:30.520Z,102246.44
2023-02-25T17:52:06.429Z,102248.66
2023-02-25T17:54:36.309Z,102243.75
2023-02-25T17:57:10.469Z,102254.25
2023-02-25T17:59:42.119Z,102254.25
2023-02-25T18:02:27.985Z,102263.75
2023-02-25T18:05:13.322Z,102271.41
2023-02-25T18:07:45.158Z,102267.72
2023-02-25T18:10:27.053Z,102269.31
2023-02-25T18:12:55.645Z,102271.91
2023-02-25T18:15:26.720Z,102283.22
2023-02-25T18:18:02.692Z,102277.44
2023-02-25T18:20:37.814Z,102275.44
2023-02-25T18:23:18.652Z,102277.31
2023-02-25T18:25:48.509Z,102283.41
2023-02-25T18:28:18.597Z,102282.78
2023-02-25T18:30:46.241Z,102290.75
2023-02-25T18:33:13.625Z,102289.91
2023-02-25T18:35:44.033Z,102295.28
2023-02-25T18:38:18.805Z,102304.94
2023-02-25T18:40:46.622Z,102310.25
2023-02-25T18:43:18.303Z,102317.38
2023-02-25T18:45:46.297Z,102325.22
2023-02-25T18:48:14.819Z,102321.97
2023-02-25T18:50:44.996Z,102323.50
2023-02-25T18:53:17.824Z,102331.69
2023-02-25T18:55:44.804Z,102325.47
2023-02-25T18:58:17.120Z,102335.34
2023-02-25T19:00:47.088Z,102319.66
2023-02-25T19:03:20.128Z,102325.81
2023-02-25T19:05:47.407Z,102323.25
2023-02-25T19:08:16.402Z,102331.38
2023-02-25T19:10:44.863Z,102330.50
2023-02-25T19:13:19.282Z,102333.41
2023-02-25T19:15:46.943Z,102340.56
2023-02-25T19:18:15.658Z,102343.22
2023-02-25T19:20:44.597Z,102342.13
2023-02-25T19:23:13.766Z,102344.75
2023-02-25T19:25:42.412Z,102359.09
2023-02-25T19:28:10.350Z,102349.59
2023-02-25T19:30:40.718Z,102356.13
2023-02-25T19:33:10.341Z,102356.25
2023-02-25T19:35:43.083Z,102352.84
2023-02-25T19:38:15.662Z,102357.44
2023-02-25T19:40:47.373Z,102359.16
2023-02-25T19:43:18.097Z,102352.38
2023-02-25T19:45:45.454Z,102358.06
2023-02-25T19:48:12.539Z,102359.75
2023-02-25T19:50:42.024Z,102356.53
2023-02-25T19:53:10.639Z,102354.50
2023-02-25T19:55:39.452Z,102351.59
2023-02-25T19:58:06.574Z,102351.50
2023-02-25T20:00:35.089Z,102348.84
2023-02-25T20:03:07.337Z,102342.41
2023-02-25T20:05:35.347Z,102342.94
2023-02-25T20:08:02.786Z,102337.63
2023-02-25T20:10:29.994Z,102337.38
2023-02-25T20:12:57.248Z,102342.56
2023-02-25T20:15:24.771Z,102341.47
2023-02-25T20:17:55.425Z,102346.88
2023-02-25T20:20:23.543Z,102346.19
2023-02-25T20:22:56.782Z,102358.41
2023-02-25T20:25:24.740Z,102362.59
2023-02-25T20:27:53.604Z,102358.81
2023-02-25T20:30:24.268Z,102360.41
2023-02-25T20:32:52.613Z,102361.19
2023-02-25T20:35:21.833Z,102367.91
2023-02-25T20:38:39.064Z,102372.50
2023-02-25T20:41:07.289Z,102376.03
2023-02-25T20:43:34.577Z,102371.59
2023-02-25T20:46:02.450Z,102377.44
2023-02-25T20:48:33.095Z,102386.16
2023-02-25T20:51:02.945Z,102385.22
2023-02-25T20:53:31.120Z,102388.13
2023-02-25T20:55:59.354Z,102393.59
2023-02-25T20:58:26.670Z,102402.22
2023-02-25T21:00:54.664Z,102400.66
2023-02-25T21:03:25.487Z,102408.72
2023-02-25T21:05:53.232Z,102409.72
2023-02-25T21:08:21.345Z,102415.09
2023-02-25T21:10:48.655Z,102410.69
2023-02-25T21:13:16.893Z,102414.22
2023-02-25T21:15:44.192Z,102414.31
2023-02-25T21:18:11.445Z,102409.97
2023-02-25T21:20:41.469Z,102406.53
2023-02-25T21:23:11.330Z,102411.97
2023-02-25T21:25:38.452Z,102408.38
2023-02-25T21:28:05.772Z,102418.00
2023-02-25T21:30:33.609Z,102413.91
2023-02-25T21:33:01.340Z,102410.72
2023-02-25T21:35:28.839Z,102408.19
2023-02-25T21:37:56.875Z,102406.38
2023-02-25T21:40:25.372Z,102412.72
2023-02-25T21:42:52.488Z,102418.25
2023-02-25T21:45:19.573Z,102420.06
2023-02-25T21:47:48.130Z,102423.81
2023-02-25T21:50:15.132Z,102430.06
2023-02-25T21:52:42.282Z,102440.81
2023-02-25T21:55:10.149Z,102440.16
2023-02-25T21:57:38.741Z,102434.00
2023-02-25T22:00:07.862Z,102430.59
2023-02-25T22:02:34.978Z,102435.25
2023-02-25T22:05:01.985Z,102427.50
2023-02-25T22:07:29.022Z,102426.75
2023-02-25T22:09:57.855Z,102431.47
2023-02-25T22:12:25.428Z,102433.28
2023-02-25T22:14:52.721Z,102436.00
2023-02-25T22:17:19.813Z,102439.69
2023-02-25T22:19:48.058Z,102436.34
2023-02-25T22:22:15.676Z,102439.81
2023-02-25T22:24:42.776Z,102437.63
2023-02-25T22:27:09.889Z,102450.38
2023-02-25T22:29:36.792Z,102446.03
2023-02-25T22:32:03.967Z,102459.47
2023-02-25T22:34:30.922Z,102463.03
2023-02-25T22:36:59.282Z,102461.00
2023-02-25T22:39:26.400Z,102466.78
2023-02-25T22:41:53.493Z,102471.53
2023-02-25T22:44:20.735Z,102468.31
2023-02-25T22:46:48.193Z,102466.88
2023-02-25T22:49:15.758Z,102458.41
2023-02-25T22:51:44.927Z,102460.34
2023-02-25T22:54:14.444Z,102457.03
2023-02-25T22:56:43.075Z,102479.28
2023-02-25T22:59:10.733Z,102479.44
2023-02-25T23:01:38.437Z,102487.63
2023-02-25T23:04:08.713Z,102477.25
2023-02-25T23:06:44.134Z,102481.81
2023-02-25T23:09:13.414Z,102483.78
2023-02-25T23:11:41.842Z,102485.78
2023-02-25T23:14:08.770Z,102496.50
2023-02-25T23:16:40.858Z,102493.22
2023-02-25T23:19:10.234Z,102493.41
2023-02-25T23:21:38.948Z,102490.91
2023-02-25T23:24:11.095Z,102497.16
2023-02-25T23:26:41.525Z,102500.88
2023-02-25T23:29:10.306Z,102503.69
2023-02-25T23:31:41.862Z,102500.31
2023-02-25T23:34:12.222Z,102503.91
2023-02-25T23:36:40.837Z,102499.59
2023-02-25T23:39:08.746Z,102500.56
2023-02-25T23:41:37.452Z,102508.66
2023-02-25T23:44:06.094Z,102507.84
2023-02-25T23:46:33.445Z,102516.78
2023-02-25T23:49:03.058Z,102516.91
2023-02-25T23:51:30.612Z,102507.31
2023-02-25T23:54:01.045Z,102515.34
2023-02-25T23:56:30.008Z,102512.78
2023-02-25T23:58:57.545Z,102515.53
